sensor_id;sensor_type;location;lat;lon;timestamp;temperature;humidity
70076;DHT22;63241;51.056;3.698;2022-10-16T00:00:14;14.00;97.60
70076;DHT22;63241;51.056;3.698;2022-10-16T00:03:03;13.90;97.60
70076;DHT22;63241;51.056;3.698;2022-10-16T00:05:51;13.90;98.40
70076;DHT22;63241;51.056;3.698;2022-10-16T00:08:40;13.90;98.60
70076;DHT22;63241;51.056;3.698;2022-10-16T00:11:32;13.80;98.60
70076;DHT22;63241;51.056;3.698;2022-10-16T00:14:20;13.80;98.90
70076;DHT22;63241;51.056;3.698;2022-10-16T00:17:08;13.70;99.20
70076;DHT22;63241;51.056;3.698;2022-10-16T00:19:57;13.80;99.10
70076;DHT22;63241;51.056;3.698;2022-10-16T00:22:44;13.70;99.40
70076;DHT22;63241;51.056;3.698;2022-10-16T00:25:34;13.60;99.90
70076;DHT22;63241;51.056;3.698;2022-10-16T00:28:22;13.60;99.90
70076;DHT22;63241;51.056;3.698;2022-10-16T00:31:11;13.50;99.90
70076;DHT22;63241;51.056;3.698;2022-10-16T00:33:59;13.50;99.90
70076;DHT22;63241;51.056;3.698;2022-10-16T00:39:14;13.40;99.90
70076;DHT22;63241;51.056;3.698;2022-10-16T00:42:03;13.40;99.90
70076;DHT22;63241;51.056;3.698;2022-10-16T00:44:56;13.40;99.90
70076;DHT22;63241;51.056;3.698;2022-10-16T00:48:03;13.30;99.90
70076;DHT22;63241;51.056;3.698;2022-10-16T00:50:51;13.40;99.90
70076;DHT22;63241;51.056;3.698;2022-10-16T00:53:38;13.40;99.90
70076;DHT22;63241;51.056;3.698;2022-10-16T00:56:26;13.30;99.90
70076;DHT22;63241;51.056;3.698;2022-10-16T01:02:10;13.30;99.90
70076;DHT22;63241;51.056;3.698;2022-10-16T01:04:59;13.30;99.90
70076;DHT22;63241;51.056;3.698;2022-10-16T01:13:46;13.40;99.90
70076;DHT22;63241;51.056;3.698;2022-10-16T01:16:37;13.30;99.90
70076;DHT22;63241;51.056;3.698;2022-10-16T01:32:40;13.20;99.90
70076;DHT22;63241;51.056;3.698;2022-10-16T01:35:30;13.20;99.90
70076;DHT22;63241;51.056;3.698;2022-10-16T01:38:28;13.20;99.90
70076;DHT22;63241;51.056;3.698;2022-10-16T01:41:22;13.10;99.90
70076;DHT22;63241;51.056;3.698;2022-10-16T01:44:28;13.20;99.90
70076;DHT22;63241;51.056;3.698;2022-10-16T01:47:19;13.10;99.90
70076;DHT22;63241;51.056;3.698;2022-10-16T01:50:12;13.10;99.90
70076;DHT22;63241;51.056;3.698;2022-10-16T01:52:59;13.10;99.90
70076;DHT22;63241;51.056;3.698;2022-10-16T01:55:32;13.20;99.90
70076;DHT22;63241;51.056;3.698;2022-10-16T01:58:21;13.20;99.90
70076;DHT22;63241;51.056;3.698;2022-10-16T02:01:12;13.20;99.90
70076;DHT22;63241;51.056;3.698;2022-10-16T02:04:07;13.10;99.90
70076;DHT22;63241;51.056;3.698;2022-10-16T02:06:53;13.10;99.90
70076;DHT22;63241;51.056;3.698;2022-10-16T02:09:41;13.10;99.90
70076;DHT22;63241;51.056;3.698;2022-10-16T02:12:31;13.20;99.90
70076;DHT22;63241;51.056;3.698;2022-10-16T02:15:21;13.20;99.90
70076;DHT22;63241;51.056;3.698;2022-10-16T02:18:09;13.10;99.90
70076;DHT22;63241;51.056;3.698;2022-10-16T02:21:04;13.10;99.90
70076;DHT22;63241;51.056;3.698;2022-10-16T02:23:58;13.10;99.90
70076;DHT22;63241;51.056;3.698;2022-10-16T02:26:52;13.10;99.90
70076;DHT22;63241;51.056;3.698;2022-10-16T02:29:56;13.10;99.90
70076;DHT22;63241;51.056;3.698;2022-10-16T02:32:45;13.10;99.90
70076;DHT22;63241;51.056;3.698;2022-10-16T02:35:32;13.10;99.90
70076;DHT22;63241;51.056;3.698;2022-10-16T02:38:20;13.10;99.90
70076;DHT22;63241;51.056;3.698;2022-10-16T02:41:09;13.20;99.90
70076;DHT22;63241;51.056;3.698;2022-10-16T02:43:58;13.10;99.90
70076;DHT22;63241;51.056;3.698;2022-10-16T02:46:45;13.10;99.90
70076;DHT22;63241;51.056;3.698;2022-10-16T02:49:34;13.10;99.90
70076;DHT22;63241;51.056;3.698;2022-10-16T02:52:22;13.10;99.90
70076;DHT22;63241;51.056;3.698;2022-10-16T02:55:10;13.00;99.90
70076;DHT22;63241;51.056;3.698;2022-10-16T02:57:59;13.10;99.90
70076;DHT22;63241;51.056;3.698;2022-10-16T03:00:27;13.10;99.90
70076;DHT22;63241;51.056;3.698;2022-10-16T03:03:14;13.20;99.90
70076;DHT22;63241;51.056;3.698;2022-10-16T03:06:02;13.20;99.90
70076;DHT22;63241;51.056;3.698;2022-10-16T03:08:49;13.20;99.90
70076;DHT22;63241;51.056;3.698;2022-10-16T03:11:38;13.10;99.90
70076;DHT22;63241;51.056;3.698;2022-10-16T03:14:26;13.00;99.90
70076;DHT22;63241;51.056;3.698;2022-10-16T03:17:14;13.00;99.90
70076;DHT22;63241;51.056;3.698;2022-10-16T03:20:02;13.10;99.90
70076;DHT22;63241;51.056;3.698;2022-10-16T03:22:50;13.10;99.90
70076;DHT22;63241;51.056;3.698;2022-10-16T03:25:38;13.10;99.90
70076;DHT22;63241;51.056;3.698;2022-10-16T03:28:24;13.10;99.90
70076;DHT22;63241;51.056;3.698;2022-10-16T03:31:13;13.10;99.90
70076;DHT22;63241;51.056;3.698;2022-10-16T03:34:00;13.00;99.90
70076;DHT22;63241;51.056;3.698;2022-10-16T03:36:49;13.10;99.90
70076;DHT22;63241;51.056;3.698;2022-10-16T03:39:37;13.10;99.90
70076;DHT22;63241;51.056;3.698;2022-10-16T03:42:25;13.10;99.90
70076;DHT22;63241;51.056;3.698;2022-10-16T03:45:19;13.10;99.90
70076;DHT22;63241;51.056;3.698;2022-10-16T03:47:42;13.00;99.90
70076;DHT22;63241;51.056;3.698;2022-10-16T03:50:30;13.00;99.90
70076;DHT22;63241;51.056;3.698;2022-10-16T03:53:17;13.00;99.90
70076;DHT22;63241;51.056;3.698;2022-10-16T03:56:06;13.00;99.90
70076;DHT22;63241;51.056;3.698;2022-10-16T03:58:54;12.90;99.90
70076;DHT22;63241;51.056;3.698;2022-10-16T04:01:42;12.80;99.90
70076;DHT22;63241;51.056;3.698;2022-10-16T04:04:40;12.90;99.90
70076;DHT22;63241;51.056;3.698;2022-10-16T04:07:28;12.90;99.90
70076;DHT22;63241;51.056;3.698;2022-10-16T04:10:19;12.90;99.90
70076;DHT22;63241;51.056;3.698;2022-10-16T04:13:07;12.80;99.90
70076;DHT22;63241;51.056;3.698;2022-10-16T04:15:54;12.80;99.90
70076;DHT22;63241;51.056;3.698;2022-10-16T04:18:42;12.80;99.90
70076;DHT22;63241;51.056;3.698;2022-10-16T04:21:30;12.80;99.90
70076;DHT22;63241;51.056;3.698;2022-10-16T04:24:18;12.80;99.90
70076;DHT22;63241;51.056;3.698;2022-10-16T04:27:07;12.80;99.90
70076;DHT22;63241;51.056;3.698;2022-10-16T04:29:56;12.80;99.90
70076;DHT22;63241;51.056;3.698;2022-10-16T04:32:48;12.80;99.90
70076;DHT22;63241;51.056;3.698;2022-10-16T04:35:37;12.70;99.90
70076;DHT22;63241;51.056;3.698;2022-10-16T04:38:25;12.70;99.90
70076;DHT22;63241;51.056;3.698;2022-10-16T04:40:52;12.80;99.90
70076;DHT22;63241;51.056;3.698;2022-10-16T04:43:40;12.80;99.90
70076;DHT22;63241;51.056;3.698;2022-10-16T04:46:28;12.70;99.90
70076;DHT22;63241;51.056;3.698;2022-10-16T04:52:57;12.60;99.90
70076;DHT22;63241;51.056;3.698;2022-10-16T04:55:53;12.60;99.90
70076;DHT22;63241;51.056;3.698;2022-10-16T04:58:41;12.50;99.90
70076;DHT22;63241;51.056;3.698;2022-10-16T05:01:30;12.50;99.90
70076;DHT22;63241;51.056;3.698;2022-10-16T05:04:18;12.50;99.90
70076;DHT22;63241;51.056;3.698;2022-10-16T05:07:06;12.60;99.90
70076;DHT22;63241;51.056;3.698;2022-10-16T05:09:54;12.50;99.90
70076;DHT22;63241;51.056;3.698;2022-10-16T05:12:42;12.60;99.90
70076;DHT22;63241;51.056;3.698;2022-10-16T05:15:30;12.60;99.90
70076;DHT22;63241;51.056;3.698;2022-10-16T05:18:18;12.70;99.90
70076;DHT22;63241;51.056;3.698;2022-10-16T05:21:06;12.80;99.90
70076;DHT22;63241;51.056;3.698;2022-10-16T05:23:54;12.90;99.90
70076;DHT22;63241;51.056;3.698;2022-10-16T05:26:21;13.00;99.90
70076;DHT22;63241;51.056;3.698;2022-10-16T05:29:09;13.10;99.90
70076;DHT22;63241;51.056;3.698;2022-10-16T05:31:57;13.20;99.90
70076;DHT22;63241;51.056;3.698;2022-10-16T05:34:45;13.30;99.90
70076;DHT22;63241;51.056;3.698;2022-10-16T05:37:33;13.30;99.90
70076;DHT22;63241;51.056;3.698;2022-10-16T05:40:30;13.30;99.90
70076;DHT22;63241;51.056;3.698;2022-10-16T05:43:18;13.40;99.90
70076;DHT22;63241;51.056;3.698;2022-10-16T05:46:10;13.40;99.90
70076;DHT22;63241;51.056;3.698;2022-10-16T05:48:58;13.40;99.90
70076;DHT22;63241;51.056;3.698;2022-10-16T05:51:46;13.40;99.90
70076;DHT22;63241;51.056;3.698;2022-10-16T05:54:34;13.30;99.90
70076;DHT22;63241;51.056;3.698;2022-10-16T05:57:26;13.20;99.90
70076;DHT22;63241;51.056;3.698;2022-10-16T06:00:17;13.20;99.90
70076;DHT22;63241;51.056;3.698;2022-10-16T06:03:05;13.00;99.90
70076;DHT22;63241;51.056;3.698;2022-10-16T06:05:55;12.90;99.90
70076;DHT22;63241;51.056;3.698;2022-10-16T06:08:44;12.90;99.90
70076;DHT22;63241;51.056;3.698;2022-10-16T06:11:53;12.90;99.90
70076;DHT22;63241;51.056;3.698;2022-10-16T06:14:41;12.80;99.90
70076;DHT22;63241;51.056;3.698;2022-10-16T06:17:30;12.80;99.90
70076;DHT22;63241;51.056;3.698;2022-10-16T06:20:23;12.80;99.90
70076;DHT22;63241;51.056;3.698;2022-10-16T06:23:11;12.80;99.90
70076;DHT22;63241;51.056;3.698;2022-10-16T06:26:12;12.80;99.90
70076;DHT22;63241;51.056;3.698;2022-10-16T06:28:59;12.80;99.90
70076;DHT22;63241;51.056;3.698;2022-10-16T06:31:54;12.80;99.90
70076;DHT22;63241;51.056;3.698;2022-10-16T06:34:42;12.90;99.90
70076;DHT22;63241;51.056;3.698;2022-10-16T06:37:31;13.00;99.90
70076;DHT22;63241;51.056;3.698;2022-10-16T06:40:19;13.00;99.90
70076;DHT22;63241;51.056;3.698;2022-10-16T06:43:09;13.10;99.90
70076;DHT22;63241;51.056;3.698;2022-10-16T06:45:57;13.20;99.90
70076;DHT22;63241;51.056;3.698;2022-10-16T06:48:45;13.30;99.90
70076;DHT22;63241;51.056;3.698;2022-10-16T06:51:33;13.30;99.90
70076;DHT22;63241;51.056;3.698;2022-10-16T06:54:22;13.50;99.90
70076;DHT22;63241;51.056;3.698;2022-10-16T06:57:10;13.50;99.90
70076;DHT22;63241;51.056;3.698;2022-10-16T06:59:58;13.60;99.90
70076;DHT22;63241;51.056;3.698;2022-10-16T07:02:50;13.70;99.90
70076;DHT22;63241;51.056;3.698;2022-10-16T07:05:38;13.80;99.90
70076;DHT22;63241;51.056;3.698;2022-10-16T07:08:26;13.80;99.90
70076;DHT22;63241;51.056;3.698;2022-10-16T07:11:16;13.80;99.90
70076;DHT22;63241;51.056;3.698;2022-10-16T07:14:15;13.80;99.90
70076;DHT22;63241;51.056;3.698;2022-10-16T07:17:03;13.80;99.90
70076;DHT22;63241;51.056;3.698;2022-10-16T07:23:04;14.00;99.90
70076;DHT22;63241;51.056;3.698;2022-10-16T07:25:55;14.00;99.90
70076;DHT22;63241;51.056;3.698;2022-10-16T07:28:44;14.10;99.90
70076;DHT22;63241;51.056;3.698;2022-10-16T07:31:30;14.10;99.90
70076;DHT22;63241;51.056;3.698;2022-10-16T07:34:20;14.10;99.90
70076;DHT22;63241;51.056;3.698;2022-10-16T07:37:07;14.10;99.90
70076;DHT22;63241;51.056;3.698;2022-10-16T07:39:55;14.10;99.90
70076;DHT22;63241;51.056;3.698;2022-10-16T07:42:22;14.20;99.90
70076;DHT22;63241;51.056;3.698;2022-10-16T07:45:12;14.60;99.90
70076;DHT22;63241;51.056;3.698;2022-10-16T07:48:06;14.90;99.90
70076;DHT22;63241;51.056;3.698;2022-10-16T07:50:57;15.30;99.90
70076;DHT22;63241;51.056;3.698;2022-10-16T07:53:46;15.70;99.90
70076;DHT22;63241;51.056;3.698;2022-10-16T07:56:35;16.40;98.70
70076;DHT22;63241;51.056;3.698;2022-10-16T07:59:23;18.50;95.00
70076;DHT22;63241;51.056;3.698;2022-10-16T08:02:11;20.20;84.00
70076;DHT22;63241;51.056;3.698;2022-10-16T08:04:59;22.20;75.30
70076;DHT22;63241;51.056;3.698;2022-10-16T08:07:51;24.20;68.60
70076;DHT22;63241;51.056;3.698;2022-10-16T08:10:39;25.10;59.30
70076;DHT22;63241;51.056;3.698;2022-10-16T08:13:27;25.40;55.20
70076;DHT22;63241;51.056;3.698;2022-10-16T08:16:15;24.00;55.60
70076;DHT22;63241;51.056;3.698;2022-10-16T08:19:04;23.20;57.80
70076;DHT22;63241;51.056;3.698;2022-10-16T08:21:54;22.80;59.60
70076;DHT22;63241;51.056;3.698;2022-10-16T08:24:45;22.30;59.60
70076;DHT22;63241;51.056;3.698;2022-10-16T08:27:33;22.50;60.00
70076;DHT22;63241;51.056;3.698;2022-10-16T08:30:23;24.10;58.10
70076;DHT22;63241;51.056;3.698;2022-10-16T08:35:39;24.30;54.70
70076;DHT22;63241;51.056;3.698;2022-10-16T08:38:27;24.80;54.30
70076;DHT22;63241;51.056;3.698;2022-10-16T08:41:37;25.50;53.80
70076;DHT22;63241;51.056;3.698;2022-10-16T08:44:31;26.70;53.00
70076;DHT22;63241;51.056;3.698;2022-10-16T08:47:35;28.00;49.20
70076;DHT22;63241;51.056;3.698;2022-10-16T08:50:30;28.80;45.60
70076;DHT22;63241;51.056;3.698;2022-10-16T08:53:30;29.70;42.80
70076;DHT22;63241;51.056;3.698;2022-10-16T08:58:43;29.80;41.20
70076;DHT22;63241;51.056;3.698;2022-10-16T09:01:43;30.40;40.70
70076;DHT22;63241;51.056;3.698;2022-10-16T09:10:57;29.10;41.30
70076;DHT22;63241;51.056;3.698;2022-10-16T09:17:03;30.10;40.30
70076;DHT22;63241;51.056;3.698;2022-10-16T09:20:03;31.60;38.50
70076;DHT22;63241;51.056;3.698;2022-10-16T09:22:41;32.80;35.40
70076;DHT22;63241;51.056;3.698;2022-10-16T09:25:30;33.50;35.20
70076;DHT22;63241;51.056;3.698;2022-10-16T09:28:22;33.80;33.30
70076;DHT22;63241;51.056;3.698;2022-10-16T09:31:17;34.50;32.70
70076;DHT22;63241;51.056;3.698;2022-10-16T09:34:06;35.50;32.50
70076;DHT22;63241;51.056;3.698;2022-10-16T09:36:56;35.80;30.60
70076;DHT22;63241;51.056;3.698;2022-10-16T09:39:48;36.70;30.20
70076;DHT22;63241;51.056;3.698;2022-10-16T09:45:04;37.60;28.00
70076;DHT22;63241;51.056;3.698;2022-10-16T09:47:53;36.60;28.60
70076;DHT22;63241;51.056;3.698;2022-10-16T09:50:42;35.60;28.90
70076;DHT22;63241;51.056;3.698;2022-10-16T09:53:44;34.30;30.40
70076;DHT22;63241;51.056;3.698;2022-10-16T09:56:35;33.90;30.80
70076;DHT22;63241;51.056;3.698;2022-10-16T09:59:23;33.80;31.70
70076;DHT22;63241;51.056;3.698;2022-10-16T10:02:30;34.20;31.70
70076;DHT22;63241;51.056;3.698;2022-10-16T10:05:27;34.90;30.70
70076;DHT22;63241;51.056;3.698;2022-10-16T10:08:17;34.60;30.40
70076;DHT22;63241;51.056;3.698;2022-10-16T10:11:06;34.10;30.70
70076;DHT22;63241;51.056;3.698;2022-10-16T10:14:03;33.40;31.50
70076;DHT22;63241;51.056;3.698;2022-10-16T10:16:46;32.60;33.10
70076;DHT22;63241;51.056;3.698;2022-10-16T10:19:54;32.60;33.70
70076;DHT22;63241;51.056;3.698;2022-10-16T10:22:44;32.10;33.80
70076;DHT22;63241;51.056;3.698;2022-10-16T10:25:51;31.70;34.60
70076;DHT22;63241;51.056;3.698;2022-10-16T10:35:11;31.20;36.70
70076;DHT22;63241;51.056;3.698;2022-10-16T10:42:00;31.30;36.10
70076;DHT22;63241;51.056;3.698;2022-10-16T10:48:18;29.30;38.20
70076;DHT22;63241;51.056;3.698;2022-10-16T10:54:41;29.60;39.60
70076;DHT22;63241;51.056;3.698;2022-10-16T10:57:37;30.80;38.00
70076;DHT22;63241;51.056;3.698;2022-10-16T11:03:58;32.40;33.50
70076;DHT22;63241;51.056;3.698;2022-10-16T11:10:02;31.70;34.40
70076;DHT22;63241;51.056;3.698;2022-10-16T11:12:48;31.40;34.70
70076;DHT22;63241;51.056;3.698;2022-10-16T11:15:37;31.90;34.10
70076;DHT22;63241;51.056;3.698;2022-10-16T11:18:45;32.90;32.40
70076;DHT22;63241;51.056;3.698;2022-10-16T11:21:36;31.70;32.00
70076;DHT22;63241;51.056;3.698;2022-10-16T11:24:36;30.70;34.20
70076;DHT22;63241;51.056;3.698;2022-10-16T11:30:29;30.60;34.80
70076;DHT22;63241;51.056;3.698;2022-10-16T11:33:32;29.90;35.40
70076;DHT22;63241;51.056;3.698;2022-10-16T11:36:34;28.50;38.20
70076;DHT22;63241;51.056;3.698;2022-10-16T11:39:26;27.80;39.90
70076;DHT22;63241;51.056;3.698;2022-10-16T11:42:27;28.30;40.10
70076;DHT22;63241;51.056;3.698;2022-10-16T11:45:36;29.70;38.20
70076;DHT22;63241;51.056;3.698;2022-10-16T11:54:45;32.00;33.40
70076;DHT22;63241;51.056;3.698;2022-10-16T11:57:38;31.70;33.10
70076;DHT22;63241;51.056;3.698;2022-10-16T12:00:28;30.80;35.30
70076;DHT22;63241;51.056;3.698;2022-10-16T12:03:29;31.20;34.70
70076;DHT22;63241;51.056;3.698;2022-10-16T12:06:37;31.50;33.20
70076;DHT22;63241;51.056;3.698;2022-10-16T12:09:30;31.50;33.20
70076;DHT22;63241;51.056;3.698;2022-10-16T12:12:37;30.90;34.80
70076;DHT22;63241;51.056;3.698;2022-10-16T12:18:24;30.70;33.90
70076;DHT22;63241;51.056;3.698;2022-10-16T12:21:15;30.90;33.80
70076;DHT22;63241;51.056;3.698;2022-10-16T12:24:06;30.50;33.30
70076;DHT22;63241;51.056;3.698;2022-10-16T12:26:54;30.20;32.90
70076;DHT22;63241;51.056;3.698;2022-10-16T12:29:43;29.60;34.70
70076;DHT22;63241;51.056;3.698;2022-10-16T12:32:36;30.10;35.20
70076;DHT22;63241;51.056;3.698;2022-10-16T12:35:28;29.50;35.50
70076;DHT22;63241;51.056;3.698;2022-10-16T12:38:25;30.50;36.00
70076;DHT22;63241;51.056;3.698;2022-10-16T12:41:34;30.60;34.20
70076;DHT22;63241;51.056;3.698;2022-10-16T12:44:25;30.80;34.30
70076;DHT22;63241;51.056;3.698;2022-10-16T12:47:21;31.00;33.20
70076;DHT22;63241;51.056;3.698;2022-10-16T12:50:36;30.90;34.70
70076;DHT22;63241;51.056;3.698;2022-10-16T12:53:26;31.00;34.70
70076;DHT22;63241;51.056;3.698;2022-10-16T12:56:26;30.80;34.60
70076;DHT22;63241;51.056;3.698;2022-10-16T13:08:56;28.90;38.40
70076;DHT22;63241;51.056;3.698;2022-10-16T13:15:12;29.60;36.80
70076;DHT22;63241;51.056;3.698;2022-10-16T13:18:22;28.90;37.30
70076;DHT22;63241;51.056;3.698;2022-10-16T13:27:14;25.90;42.70
70076;DHT22;63241;51.056;3.698;2022-10-16T13:30:17;25.50;44.10
70076;DHT22;63241;51.056;3.698;2022-10-16T13:33:30;25.40;44.80
70076;DHT22;63241;51.056;3.698;2022-10-16T13:36:25;25.20;45.40
70076;DHT22;63241;51.056;3.698;2022-10-16T13:45:34;25.50;44.90
70076;DHT22;63241;51.056;3.698;2022-10-16T13:48:22;25.90;45.20
70076;DHT22;63241;51.056;3.698;2022-10-16T13:51:15;25.90;44.00
70076;DHT22;63241;51.056;3.698;2022-10-16T13:54:04;25.90;44.40
70076;DHT22;63241;51.056;3.698;2022-10-16T13:56:52;25.00;45.60
70076;DHT22;63241;51.056;3.698;2022-10-16T13:59:40;24.80;46.90
70076;DHT22;63241;51.056;3.698;2022-10-16T14:02:32;24.60;47.50
70076;DHT22;63241;51.056;3.698;2022-10-16T14:05:20;24.00;48.10
70076;DHT22;63241;51.056;3.698;2022-10-16T14:07:50;23.80;49.40
70076;DHT22;63241;51.056;3.698;2022-10-16T14:10:39;23.60;48.90
70076;DHT22;63241;51.056;3.698;2022-10-16T14:13:45;23.40;49.80
70076;DHT22;63241;51.056;3.698;2022-10-16T14:16:33;23.50;49.80
70076;DHT22;63241;51.056;3.698;2022-10-16T14:22:38;23.30;51.10
70076;DHT22;63241;51.056;3.698;2022-10-16T14:25:29;22.90;52.60
70076;DHT22;63241;51.056;3.698;2022-10-16T14:28:20;22.50;53.40
70076;DHT22;63241;51.056;3.698;2022-10-16T14:31:28;22.40;54.40
70076;DHT22;63241;51.056;3.698;2022-10-16T14:34:37;22.30;54.60
70076;DHT22;63241;51.056;3.698;2022-10-16T14:37:28;22.30;54.00
70076;DHT22;63241;51.056;3.698;2022-10-16T14:40:17;22.20;54.20
70076;DHT22;63241;51.056;3.698;2022-10-16T14:43:14;22.10;54.40
70076;DHT22;63241;51.056;3.698;2022-10-16T14:52:01;21.70;54.40
70076;DHT22;63241;51.056;3.698;2022-10-16T14:54:50;21.70;54.40
70076;DHT22;63241;51.056;3.698;2022-10-16T14:57:39;21.60;53.30
70076;DHT22;63241;51.056;3.698;2022-10-16T15:00:16;21.30;53.60
70076;DHT22;63241;51.056;3.698;2022-10-16T15:03:05;21.20;54.00
70076;DHT22;63241;51.056;3.698;2022-10-16T15:05:53;21.20;54.20
70076;DHT22;63241;51.056;3.698;2022-10-16T15:08:41;21.00;54.70
70076;DHT22;63241;51.056;3.698;2022-10-16T15:11:29;21.00;54.70
70076;DHT22;63241;51.056;3.698;2022-10-16T15:14:20;21.00;55.10
70076;DHT22;63241;51.056;3.698;2022-10-16T15:17:12;20.90;55.60
70076;DHT22;63241;51.056;3.698;2022-10-16T15:19:39;20.90;55.90
70076;DHT22;63241;51.056;3.698;2022-10-16T15:22:28;20.90;55.80
70076;DHT22;63241;51.056;3.698;2022-10-16T15:28:12;20.90;56.30
70076;DHT22;63241;51.056;3.698;2022-10-16T15:31:00;20.90;56.20
70076;DHT22;63241;51.056;3.698;2022-10-16T15:33:51;20.90;56.80
70076;DHT22;63241;51.056;3.698;2022-10-16T15:36:58;20.50;58.00
70076;DHT22;63241;51.056;3.698;2022-10-16T15:39:49;20.30;58.90
70076;DHT22;63241;51.056;3.698;2022-10-16T15:42:38;20.20;59.30
70076;DHT22;63241;51.056;3.698;2022-10-16T15:45:26;20.10;60.00
70076;DHT22;63241;51.056;3.698;2022-10-16T15:48:14;20.10;60.40
70076;DHT22;63241;51.056;3.698;2022-10-16T15:54:15;19.80;61.90
70076;DHT22;63241;51.056;3.698;2022-10-16T15:57:04;19.70;62.30
70076;DHT22;63241;51.056;3.698;2022-10-16T15:59:51;19.70;62.10
70076;DHT22;63241;51.056;3.698;2022-10-16T16:02:52;19.60;62.50
70076;DHT22;63241;51.056;3.698;2022-10-16T16:05:41;19.50;63.20
70076;DHT22;63241;51.056;3.698;2022-10-16T16:08:29;19.60;63.50
70076;DHT22;63241;51.056;3.698;2022-10-16T16:11:19;19.60;63.50
70076;DHT22;63241;51.056;3.698;2022-10-16T16:14:10;19.60;63.30
70076;DHT22;63241;51.056;3.698;2022-10-16T16:16:58;19.60;63.20
70076;DHT22;63241;51.056;3.698;2022-10-16T16:19:47;19.60;63.60
70076;DHT22;63241;51.056;3.698;2022-10-16T16:22:36;19.70;63.90
70076;DHT22;63241;51.056;3.698;2022-10-16T16:25:43;19.70;64.20
70076;DHT22;63241;51.056;3.698;2022-10-16T16:28:31;19.70;64.00
70076;DHT22;63241;51.056;3.698;2022-10-16T16:31:20;19.60;64.70
70076;DHT22;63241;51.056;3.698;2022-10-16T16:34:09;19.50;65.30
70076;DHT22;63241;51.056;3.698;2022-10-16T16:36:58;19.50;65.10
70076;DHT22;63241;51.056;3.698;2022-10-16T16:39:46;19.40;65.40
70076;DHT22;63241;51.056;3.698;2022-10-16T16:42:35;19.40;66.40
70076;DHT22;63241;51.056;3.698;2022-10-16T16:45:22;19.40;66.40
70076;DHT22;63241;51.056;3.698;2022-10-16T16:48:10;19.30;66.50
70076;DHT22;63241;51.056;3.698;2022-10-16T16:51:08;19.20;66.30
70076;DHT22;63241;51.056;3.698;2022-10-16T16:53:55;19.20;66.80
70076;DHT22;63241;51.056;3.698;2022-10-16T17:00:27;19.00;68.30
70076;DHT22;63241;51.056;3.698;2022-10-16T17:02:51;19.00;69.10
70076;DHT22;63241;51.056;3.698;2022-10-16T17:05:38;19.00;69.00
70076;DHT22;63241;51.056;3.698;2022-10-16T17:08:27;19.00;69.70
70076;DHT22;63241;51.056;3.698;2022-10-16T17:11:20;18.90;70.00
70076;DHT22;63241;51.056;3.698;2022-10-16T17:14:10;18.90;70.00
70076;DHT22;63241;51.056;3.698;2022-10-16T17:16:59;18.80;70.70
70076;DHT22;63241;51.056;3.698;2022-10-16T17:19:51;18.70;71.60
70076;DHT22;63241;51.056;3.698;2022-10-16T17:22:39;18.70;72.00
70076;DHT22;63241;51.056;3.698;2022-10-16T17:25:27;18.70;72.30
70076;DHT22;63241;51.056;3.698;2022-10-16T17:28:15;18.60;73.50
70076;DHT22;63241;51.056;3.698;2022-10-16T17:31:15;18.60;73.70
70076;DHT22;63241;51.056;3.698;2022-10-16T17:34:22;18.50;74.00
70076;DHT22;63241;51.056;3.698;2022-10-16T17:37:09;18.50;74.60
70076;DHT22;63241;51.056;3.698;2022-10-16T17:39:57;18.60;74.90
70076;DHT22;63241;51.056;3.698;2022-10-16T17:42:45;18.50;74.80
70076;DHT22;63241;51.056;3.698;2022-10-16T17:45:37;18.60;75.10
70076;DHT22;63241;51.056;3.698;2022-10-16T17:48:24;18.60;75.10
70076;DHT22;63241;51.056;3.698;2022-10-16T17:51:12;18.50;75.10
70076;DHT22;63241;51.056;3.698;2022-10-16T17:54:00;18.40;76.30
70076;DHT22;63241;51.056;3.698;2022-10-16T17:59:15;18.30;77.80
70076;DHT22;63241;51.056;3.698;2022-10-16T18:02:05;18.30;78.30
70076;DHT22;63241;51.056;3.698;2022-10-16T18:05:13;18.20;78.60
70076;DHT22;63241;51.056;3.698;2022-10-16T18:08:01;18.30;78.90
70076;DHT22;63241;51.056;3.698;2022-10-16T18:10:49;18.30;79.20
70076;DHT22;63241;51.056;3.698;2022-10-16T18:13:39;18.30;79.50
70076;DHT22;63241;51.056;3.698;2022-10-16T18:16:28;18.20;81.30
70076;DHT22;63241;51.056;3.698;2022-10-16T18:19:17;18.20;82.40
70076;DHT22;63241;51.056;3.698;2022-10-16T18:22:06;18.10;82.80
70076;DHT22;63241;51.056;3.698;2022-10-16T18:24:54;18.00;84.90
70076;DHT22;63241;51.056;3.698;2022-10-16T18:27:42;17.90;86.90
70076;DHT22;63241;51.056;3.698;2022-10-16T18:30:30;18.00;88.40
70076;DHT22;63241;51.056;3.698;2022-10-16T18:33:18;18.00;90.50
70076;DHT22;63241;51.056;3.698;2022-10-16T18:35:46;17.80;91.10
70076;DHT22;63241;51.056;3.698;2022-10-16T18:38:34;17.80;92.10
70076;DHT22;63241;51.056;3.698;2022-10-16T18:41:23;17.80;92.30
70076;DHT22;63241;51.056;3.698;2022-10-16T18:44:11;17.80;91.90
70076;DHT22;63241;51.056;3.698;2022-10-16T18:46:58;17.80;92.20
70076;DHT22;63241;51.056;3.698;2022-10-16T18:49:48;17.80;92.80
70076;DHT22;63241;51.056;3.698;2022-10-16T18:52:36;17.70;92.80
70076;DHT22;63241;51.056;3.698;2022-10-16T18:55:24;17.70;93.00
70076;DHT22;63241;51.056;3.698;2022-10-16T18:58:12;17.70;93.30
70076;DHT22;63241;51.056;3.698;2022-10-16T19:01:11;17.70;93.70
70076;DHT22;63241;51.056;3.698;2022-10-16T19:04:09;17.70;93.70
70076;DHT22;63241;51.056;3.698;2022-10-16T19:06:54;17.70;93.70
70076;DHT22;63241;51.056;3.698;2022-10-16T19:09:40;17.60;93.90
70076;DHT22;63241;51.056;3.698;2022-10-16T19:12:29;17.50;94.60
70076;DHT22;63241;51.056;3.698;2022-10-16T19:15:19;17.30;95.40
70076;DHT22;63241;51.056;3.698;2022-10-16T19:18:09;17.10;96.40
70076;DHT22;63241;51.056;3.698;2022-10-16T19:21:00;17.00;96.90
70076;DHT22;63241;51.056;3.698;2022-10-16T19:23:58;17.00;97.20
70076;DHT22;63241;51.056;3.698;2022-10-16T19:26:47;16.90;97.70
70076;DHT22;63241;51.056;3.698;2022-10-16T19:29:35;16.80;98.40
70076;DHT22;63241;51.056;3.698;2022-10-16T19:32:24;16.70;99.00
70076;DHT22;63241;51.056;3.698;2022-10-16T19:35:12;16.60;99.70
70076;DHT22;63241;51.056;3.698;2022-10-16T19:38:01;16.60;99.90
70076;DHT22;63241;51.056;3.698;2022-10-16T19:40:49;16.50;99.90
70076;DHT22;63241;51.056;3.698;2022-10-16T19:43:17;16.50;99.90
70076;DHT22;63241;51.056;3.698;2022-10-16T19:46:06;16.50;99.90
70076;DHT22;63241;51.056;3.698;2022-10-16T19:48:57;16.40;99.90
70076;DHT22;63241;51.056;3.698;2022-10-16T19:51:49;16.30;99.90
70076;DHT22;63241;51.056;3.698;2022-10-16T19:54:45;16.20;99.90
70076;DHT22;63241;51.056;3.698;2022-10-16T19:57:35;16.20;99.90
70076;DHT22;63241;51.056;3.698;2022-10-16T20:00:23;16.20;99.90
70076;DHT22;63241;51.056;3.698;2022-10-16T20:03:11;16.10;99.90
70076;DHT22;63241;51.056;3.698;2022-10-16T20:05:59;16.10;99.90